Accueil
METAR-TAF:

METAR-TAF

Aéroports :

Aéroport d'Alexandroúpoli

Alexandroúpoli, Grèce

latitude: 40-51N, longitude: 025-55E, altitude: 7 m

Observation

Le bulletin a été fait il y a 20 minutes, à 06:20 UTC
Vent 3 kt de direction variable
Température -2°C
Humidité 69%
Pression 1017 hPa
Visibilité 10 km ou plus
pas de nuages en-dessous de 1500 mètres et pas de cumulonimbus.

METAR: LGAL 160620Z VRB03KT CAVOK M02/M07 Q1017

Heure: 08:40 (06:40 UTC)

Prévision

Le bulletin a été fait il y a 1 heure et 40 minutes, à 05:00 UTC
Prévision valable du 16 à 06 UTC au 16 à 15 UTC
Vent 7 kt de nord/nord-est
Visibilité 10 km ou plus
Quelques nuages à une hauteur de 2000 ft
Evoluant progressivement
du 16 à 07 UTC au 16 à 09 UTC
Vent 10 kt de ouest

TAF: LGAL 160500Z 1606/1615 02007KT 9999 FEW020 BECMG 1607/1609 26010KT

Observations et prévisions météorologiques de plus de 4000 aéroports (messages METAR et TAF).

Les stations disponibles sont représentées par des disques jaunes et rouges sur la carte.

Passer la souris dessus pour voir le nom de la station.

Cliquer dessus pour voir les observations et prévisions météorologiques.

Pour changer de carte: cliquez sur les boutons verts avec une croix noire pour zoomer, sur le bouton vert avec un tiret pour effectuer un zoom arrière, ou sur les flèches vertes pour les cartes adjacentes.


METAR-TAF: